createdAt,value
2022-10-27T00:01:03.236Z,102069.75
2022-10-27T00:03:33.379Z,102079.38
2022-10-27T00:06:06.550Z,102052.31
2022-10-27T00:08:37.619Z,102082.00
2022-10-27T00:11:08.207Z,102077.69
2022-10-27T00:13:38.771Z,102084.69
2022-10-27T00:16:17.563Z,102071.59
2022-10-27T00:18:47.717Z,102089.97
2022-10-27T00:21:20.717Z,102089.13
2022-10-27T00:23:51.672Z,102080.44
2022-10-27T00:26:22.327Z,102091.75
2022-10-27T00:28:52.428Z,102092.66
2022-10-27T00:31:22.806Z,102092.66
2022-10-27T00:33:52.873Z,102089.19
2022-10-27T00:36:24.886Z,102093.56
2022-10-27T00:38:58.460Z,102093.66
2022-10-27T00:41:31.358Z,102093.66
2022-10-27T00:44:23.129Z,102083.22
2022-10-27T00:46:53.379Z,102101.53
2022-10-27T00:49:28.222Z,102100.63
2022-10-27T00:52:08.663Z,102103.22
2022-10-27T00:54:41.676Z,102092.81
2022-10-27T00:57:12.543Z,102092.84
2022-10-27T00:59:43.108Z,102086.75
2022-10-27T01:02:14.502Z,102090.28
2022-10-27T01:05:00.300Z,102081.53
2022-10-27T01:07:31.043Z,102093.78
2022-10-27T01:10:01.266Z,102088.56
2022-10-27T01:12:32.504Z,102087.69
2022-10-27T01:15:03.804Z,102078.19
2022-10-27T01:17:58.639Z,102082.53
2022-10-27T01:20:59.435Z,102078.25
2022-10-27T01:23:40.135Z,102086.91
2022-10-27T01:26:12.793Z,102074.78
2022-10-27T01:29:21.895Z,102086.06
2022-10-27T01:31:59.927Z,102085.16
2022-10-27T01:34:44.645Z,102086.06
2022-10-27T01:37:23.498Z,102084.28
2022-10-27T01:40:02.307Z,102085.22
2022-10-27T01:42:50.220Z,102085.22
2022-10-27T01:45:29.670Z,102082.63
2022-10-27T01:48:00.648Z,102077.34
2022-10-27T01:50:45.457Z,102071.31
2022-10-27T01:53:25.117Z,102080.03
2022-10-27T01:56:36.560Z,102078.31
2022-10-27T01:59:33.735Z,102080.06
2022-10-27T02:02:18.540Z,102083.56
2022-10-27T02:05:00.403Z,102087.91
2022-10-27T02:07:49.637Z,102077.44
2022-10-27T02:10:32.636Z,102077.44
2022-10-27T02:13:04.938Z,102077.44
2022-10-27T02:15:48.594Z,102078.31
2022-10-27T02:18:27.900Z,102077.47
2022-10-27T02:23:35.084Z,102074.81
2022-10-27T02:26:29.601Z,102079.19
2022-10-27T02:29:07.107Z,102060.81
2022-10-27T02:31:43.579Z,102067.84
2022-10-27T02:34:15.792Z,102052.94
2022-10-27T02:36:46.798Z,102067.75
2022-10-27T02:39:16.985Z,102067.78
2022-10-27T02:41:47.081Z,102076.44
2022-10-27T02:44:17.258Z,102070.34
2022-10-27T02:46:50.367Z,102071.22
2022-10-27T02:49:23.102Z,102069.47
2022-10-27T02:51:53.243Z,102072.06
2022-10-27T02:54:23.440Z,102079.00
2022-10-27T02:56:53.509Z,102081.59
2022-10-27T02:59:23.745Z,102082.50
2022-10-27T03:01:54.893Z,102083.34
2022-10-27T03:04:25.124Z,102085.97
2022-10-27T03:06:55.206Z,102081.56
2022-10-27T03:09:25.443Z,102085.97
2022-10-27T03:11:55.644Z,102089.44
2022-10-27T03:14:25.862Z,102082.47
2022-10-27T03:16:56.199Z,102073.69
2022-10-27T03:19:26.623Z,102081.59
2022-10-27T03:21:59.927Z,102070.13
2022-10-27T03:24:31.882Z,102080.69
2022-10-27T03:27:02.952Z,102085.91
2022-10-27T03:29:33.128Z,102081.56
2022-10-27T03:32:03.392Z,102081.56
2022-10-27T03:34:33.470Z,102084.19
2022-10-27T03:37:03.557Z,102083.34
2022-10-27T03:39:33.836Z,102078.94
2022-10-27T03:42:04.282Z,102080.75
2022-10-27T03:44:34.424Z,102090.34
2022-10-27T03:47:04.561Z,102085.97
2022-10-27T03:49:34.623Z,102083.34
2022-10-27T03:52:04.952Z,102071.09
2022-10-27T03:54:35.175Z,102093.81
2022-10-27T03:57:12.211Z,102078.13
2022-10-27T03:59:42.300Z,102099.06
2022-10-27T04:02:12.457Z,102088.63
2022-10-27T04:04:42.603Z,102089.47
2022-10-27T04:07:12.639Z,102085.13
2022-10-27T04:09:42.783Z,102094.69
2022-10-27T04:12:12.864Z,102093.84
2022-10-27T04:14:42.915Z,102092.97
2022-10-27T04:17:12.997Z,102100.84
2022-10-27T04:19:43.593Z,102102.59
2022-10-27T04:22:13.674Z,102091.22
2022-10-27T04:24:43.773Z,102098.22
2022-10-27T04:27:14.152Z,102087.78
2022-10-27T04:29:44.391Z,102096.50
2022-10-27T04:32:14.438Z,102102.63
2022-10-27T04:34:44.551Z,102101.75
2022-10-27T04:37:14.596Z,102102.63
2022-10-27T04:39:44.754Z,102104.38
2022-10-27T04:42:14.835Z,102102.63
2022-10-27T04:44:45.021Z,102099.13
2022-10-27T04:47:15.152Z,102101.72
2022-10-27T04:49:45.192Z,102099.06
2022-10-27T04:52:15.382Z,102111.25
2022-10-27T04:54:45.485Z,102124.31
2022-10-27T04:57:15.585Z,102132.09
2022-10-27T04:59:45.759Z,102116.34
2022-10-27T05:02:15.888Z,102132.94
2022-10-27T05:04:46.072Z,102135.59
2022-10-27T05:07:16.143Z,102132.88
2022-10-27T05:09:46.333Z,102144.19
2022-10-27T05:12:16.366Z,102133.69
2022-10-27T05:14:46.526Z,102134.59
2022-10-27T05:17:19.379Z,102136.31
2022-10-27T05:19:49.833Z,102126.72
2022-10-27T05:22:20.005Z,102131.03
2022-10-27T05:24:50.011Z,102127.47
2022-10-27T05:27:20.137Z,102137.09
2022-10-27T05:29:50.186Z,102132.75
2022-10-27T05:32:20.401Z,102134.41
2022-10-27T05:34:50.537Z,102147.47
2022-10-27T05:37:20.674Z,102134.44
2022-10-27T05:39:50.853Z,102140.47
2022-10-27T05:42:21.033Z,102150.03
2022-10-27T05:44:51.290Z,102148.25
2022-10-27T05:47:21.506Z,102155.25
2022-10-27T05:49:51.626Z,102167.41
2022-10-27T05:52:21.702Z,102168.22
2022-10-27T05:54:51.792Z,102165.53
2022-10-27T05:57:21.944Z,102164.72
2022-10-27T05:59:52.069Z,102169.09
2022-10-27T06:02:22.261Z,102160.38
2022-10-27T06:04:52.387Z,102167.38
2022-10-27T06:07:22.571Z,102174.34
2022-10-27T06:09:52.628Z,102185.66
2022-10-27T06:12:23.076Z,102194.34
2022-10-27T06:14:53.180Z,102182.13
2022-10-27T06:17:23.315Z,102187.41
2022-10-27T06:19:53.400Z,102171.78
2022-10-27T06:22:23.733Z,102174.34
2022-10-27T06:24:54.003Z,102170.91
2022-10-27T06:27:24.106Z,102177.88
2022-10-27T06:29:54.236Z,102170.84
2022-10-27T06:34:59.627Z,102174.38
2022-10-27T06:37:29.755Z,102169.13
2022-10-27T06:40:01.205Z,102182.34
2022-10-27T06:42:42.972Z,102179.69
2022-10-27T06:45:20.152Z,102186.66
2022-10-27T06:48:02.225Z,102191.91
2022-10-27T06:50:32.991Z,102190.13
2022-10-27T06:53:03.618Z,102197.97
2022-10-27T06:55:33.889Z,102195.34
2022-10-27T06:58:05.643Z,102194.44
2022-10-27T07:00:37.661Z,102182.19
2022-10-27T07:05:41.158Z,102197.09
2022-10-27T07:08:11.340Z,102195.34
2022-10-27T07:10:41.698Z,102191.94
2022-10-27T07:13:11.876Z,102193.72
2022-10-27T07:15:41.935Z,102199.81
2022-10-27T07:18:12.164Z,102201.53
2022-10-27T07:20:45.624Z,102191.91
2022-10-27T07:23:15.851Z,102188.41
2022-10-27T07:25:50.225Z,102200.69
2022-10-27T07:28:21.143Z,102201.53
2022-10-27T07:30:56.277Z,102206.75
2022-10-27T07:33:26.478Z,102200.69
2022-10-27T07:35:56.521Z,102201.53
2022-10-27T07:38:26.654Z,102202.44
2022-10-27T07:40:57.268Z,102200.72
2022-10-27T07:43:27.507Z,102201.63
2022-10-27T07:45:58.213Z,102206.78
2022-10-27T07:48:28.376Z,102211.19
2022-10-27T07:50:58.608Z,102212.97
2022-10-27T07:53:28.868Z,102201.63
2022-10-27T07:55:59.267Z,102213.94
2022-10-27T07:58:29.750Z,102222.69
2022-10-27T08:01:00.629Z,102215.72
2022-10-27T08:03:31.995Z,102214.75
2022-10-27T08:06:03.335Z,102213.03
2022-10-27T08:08:36.157Z,102231.28
2022-10-27T08:11:06.435Z,102221.72
2022-10-27T08:13:36.830Z,102220.88
2022-10-27T08:16:07.271Z,102207.88
2022-10-27T08:18:39.103Z,102215.78
2022-10-27T08:21:09.451Z,102208.00
2022-10-27T08:23:40.398Z,102207.03
2022-10-27T08:26:10.854Z,102217.59
2022-10-27T08:28:40.958Z,102222.00
2022-10-27T08:31:11.101Z,102226.38
2022-10-27T08:33:41.274Z,102225.56
2022-10-27T08:36:11.976Z,102207.16
2022-10-27T08:38:42.088Z,102230.63
2022-10-27T08:41:25.072Z,102223.63
2022-10-27T08:44:15.116Z,102240.13
2022-10-27T08:46:54.016Z,102253.19
2022-10-27T08:49:41.153Z,102245.34
2022-10-27T08:52:17.994Z,102254.97
2022-10-27T08:54:52.129Z,102233.94
2022-10-27T08:57:28.548Z,102263.66
2022-10-27T08:59:59.899Z,102262.03
2022-10-27T09:02:46.853Z,102259.38
2022-10-27T09:05:23.236Z,102259.41
2022-10-27T09:07:53.619Z,102261.19
2022-10-27T09:10:44.482Z,102256.94
2022-10-27T09:13:35.494Z,102257.03
2022-10-27T09:16:12.856Z,102260.50
2022-10-27T09:18:53.427Z,102258.75
2022-10-27T09:21:26.614Z,102277.09
2022-10-27T09:24:04.092Z,102267.41
2022-10-27T09:26:34.648Z,102277.88
2022-10-27T09:29:17.150Z,102251.72
2022-10-27T09:32:18.640Z,102258.00
2022-10-27T09:35:01.768Z,102264.16
2022-10-27T09:37:34.244Z,102263.22
2022-10-27T09:40:04.874Z,102267.59
2022-10-27T09:42:35.071Z,102265.88
2022-10-27T09:45:17.815Z,102268.56
2022-10-27T09:47:53.330Z,102272.94
2022-10-27T09:50:48.330Z,102264.28
2022-10-27T09:53:41.910Z,102269.56
2022-10-27T09:56:18.723Z,102262.59
2022-10-27T09:58:57.760Z,102262.53
2022-10-27T10:01:30.075Z,102270.53
2022-10-27T10:04:10.239Z,102268.72
2022-10-27T10:06:43.031Z,102265.25
2022-10-27T10:09:31.368Z,102267.06
2022-10-27T10:12:23.126Z,102268.88
2022-10-27T10:15:12.489Z,102270.59
2022-10-27T10:17:51.859Z,102270.63
2022-10-27T10:20:38.370Z,102273.25
2022-10-27T10:23:20.952Z,102259.34
2022-10-27T10:25:52.969Z,102247.97
2022-10-27T10:28:31.232Z,102269.88
2022-10-27T10:31:05.162Z,102270.75
2022-10-27T10:33:39.954Z,102268.13
2022-10-27T10:36:25.160Z,102268.16
2022-10-27T10:38:59.226Z,102269.00
2022-10-27T10:41:31.224Z,102275.13
2022-10-27T10:44:18.156Z,102268.19
2022-10-27T10:46:54.774Z,102267.38
2022-10-27T10:49:35.753Z,102268.19
2022-10-27T10:52:18.170Z,102262.13
2022-10-27T10:54:48.497Z,102269.09
2022-10-27T10:57:33.190Z,102271.75
2022-10-27T11:00:06.579Z,102273.50
2022-10-27T11:02:37.279Z,102273.53
2022-10-27T11:05:30.365Z,102276.19
2022-10-27T11:08:01.416Z,102267.53
2022-10-27T11:10:41.250Z,102236.91
2022-10-27T11:13:20.529Z,102264.06
2022-10-27T11:16:04.267Z,102271.97
2022-10-27T11:18:54.609Z,102274.63
2022-10-27T11:21:49.644Z,102265.94
2022-10-27T11:24:31.791Z,102258.06
2022-10-27T11:27:13.350Z,102264.19
2022-10-27T11:30:06.267Z,102261.63
2022-10-27T11:32:47.493Z,102272.09
2022-10-27T11:35:27.021Z,102272.97
2022-10-27T11:38:03.321Z,102267.75
2022-10-27T11:41:07.170Z,102272.16
2022-10-27T11:43:47.599Z,102272.25
2022-10-27T11:46:34.304Z,102253.94
2022-10-27T11:49:12.245Z,102248.69
2022-10-27T11:52:05.997Z,102266.16
2022-10-27T11:54:36.173Z,102266.19
2022-10-27T11:57:40.412Z,102266.19
2022-10-27T12:00:10.655Z,102267.06
2022-10-27T12:03:08.420Z,102271.44
2022-10-27T12:05:56.231Z,102267.97
2022-10-27T12:08:36.269Z,102267.09
2022-10-27T12:11:24.111Z,102265.38
2022-10-27T12:14:09.430Z,102274.97
2022-10-27T12:16:52.408Z,102269.75
2022-10-27T12:19:30.093Z,102267.16
2022-10-27T12:22:21.390Z,102268.03
2022-10-27T12:24:59.797Z,102262.78
2022-10-27T12:27:37.728Z,102263.66
2022-10-27T12:30:20.697Z,102271.50
2022-10-27T12:33:05.561Z,102268.03
2022-10-27T12:35:48.062Z,102267.19
2022-10-27T12:38:31.467Z,102259.34
2022-10-27T12:41:29.397Z,102254.97
2022-10-27T12:44:08.599Z,102261.06
2022-10-27T12:47:05.788Z,102270.72
2022-10-27T12:49:41.754Z,102264.56
2022-10-27T12:52:24.181Z,102247.13
2022-10-27T12:55:20.374Z,102266.31
2022-10-27T12:57:56.248Z,102273.31
2022-10-27T13:03:10.772Z,102267.19
2022-10-27T13:05:47.891Z,102259.34
2022-10-27T13:08:35.937Z,102266.31
2022-10-27T13:11:44.400Z,102261.94
2022-10-27T13:14:51.845Z,102269.81
2022-10-27T13:17:31.496Z,102276.78
2022-10-27T13:20:28.574Z,102273.31
2022-10-27T13:23:10.868Z,102263.69
2022-10-27T13:25:47.795Z,102265.47
2022-10-27T13:28:26.375Z,102264.56
2022-10-27T13:31:03.567Z,102257.59
2022-10-27T13:33:40.193Z,102264.56
2022-10-27T13:36:18.071Z,102263.69
2022-10-27T13:38:49.906Z,102264.59
2022-10-27T13:41:57.261Z,102265.44
2022-10-27T13:44:35.508Z,102275.06
2022-10-27T13:47:05.998Z,102262.81
2022-10-27T13:49:42.177Z,102268.09
2022-10-27T13:52:23.795Z,102266.31
2022-10-27T13:54:58.137Z,102276.78
2022-10-27T13:58:05.276Z,102272.44
2022-10-27T14:01:22.453Z,102275.06
2022-10-27T14:04:16.666Z,102275.06
2022-10-27T14:06:49.398Z,102269.81
2022-10-27T14:09:45.995Z,102277.69
2022-10-27T14:12:24.014Z,102269.84
2022-10-27T14:15:23.249Z,102260.22
2022-10-27T14:17:57.797Z,102275.06
2022-10-27T14:20:38.606Z,102276.81
2022-10-27T14:23:14.553Z,102282.91
2022-10-27T14:25:47.058Z,102275.06
2022-10-27T14:28:17.137Z,102274.19
2022-10-27T14:31:07.403Z,102276.78
2022-10-27T14:33:37.825Z,102279.41
2022-10-27T14:36:30.601Z,102279.41
2022-10-27T14:39:12.749Z,102275.91
2022-10-27T14:41:47.146Z,102253.16
2022-10-27T14:44:23.540Z,102268.91
2022-10-27T14:46:58.804Z,102276.75
2022-10-27T14:49:34.857Z,102272.38
2022-10-27T14:52:09.639Z,102276.75
2022-10-27T14:54:40.016Z,102270.63
2022-10-27T14:57:32.027Z,102289.84
2022-10-27T15:00:21.438Z,102299.44
2022-10-27T15:02:53.205Z,102297.66
2022-10-27T15:05:25.037Z,102296.75
2022-10-27T15:07:58.234Z,102296.75
2022-10-27T15:10:34.669Z,102297.59
2022-10-27T15:13:12.509Z,102295.81
2022-10-27T15:15:46.817Z,102285.34
2022-10-27T15:18:36.458Z,102276.53
2022-10-27T15:21:13.108Z,102285.28
2022-10-27T15:23:44.271Z,102295.81
2022-10-27T15:26:24.455Z,102282.59
2022-10-27T15:28:55.761Z,102295.69
2022-10-27T15:31:26.161Z,102293.03
2022-10-27T15:34:04.517Z,102294.78
2022-10-27T15:36:34.774Z,102293.88
2022-10-27T15:39:11.521Z,102284.19
2022-10-27T15:41:52.195Z,102291.16
2022-10-27T15:44:27.501Z,102308.63
2022-10-27T15:46:57.639Z,102292.91
2022-10-27T15:49:30.925Z,102287.59
2022-10-27T15:52:04.830Z,102277.06
2022-10-27T15:54:39.353Z,102302.44
2022-10-27T15:57:30.778Z,102291.06
2022-10-27T16:00:12.638Z,102301.56
2022-10-27T16:02:48.418Z,102284.03
2022-10-27T16:05:30.716Z,102298.88
2022-10-27T16:08:20.735Z,102295.34
2022-10-27T16:10:52.854Z,102292.72
2022-10-27T16:13:25.374Z,102282.22
2022-10-27T16:15:58.645Z,102282.19
2022-10-27T16:18:28.770Z,102288.28
2022-10-27T16:20:58.924Z,102278.66
2022-10-27T16:23:29.055Z,102283.88
2022-10-27T16:25:59.510Z,102289.97
2022-10-27T16:28:37.596Z,102280.34
2022-10-27T16:31:14.098Z,102288.13
2022-10-27T16:33:47.999Z,102293.38
2022-10-27T16:36:18.267Z,102299.41
2022-10-27T16:38:48.430Z,102303.78
2022-10-27T16:41:25.425Z,102295.91
2022-10-27T16:43:55.932Z,102298.50
2022-10-27T16:46:27.823Z,102297.63
2022-10-27T16:48:57.959Z,102289.72
2022-10-27T16:51:28.087Z,102287.97
2022-10-27T16:53:58.603Z,102301.03
2022-10-27T16:56:28.768Z,102281.81
2022-10-27T16:58:58.961Z,102287.06
2022-10-27T17:01:29.165Z,102290.50
2022-10-27T17:04:01.103Z,102272.13
2022-10-27T17:06:31.255Z,102285.28
2022-10-27T17:09:01.668Z,102274.69
2022-10-27T17:11:31.801Z,102289.59
2022-10-27T17:14:01.958Z,102284.38
2022-10-27T17:16:32.090Z,102293.09
2022-10-27T17:19:02.331Z,102256.31
2022-10-27T17:21:32.467Z,102277.31
2022-10-27T17:24:03.219Z,102277.31
2022-10-27T17:26:33.650Z,102276.41
2022-10-27T17:29:05.346Z,102270.25
2022-10-27T17:31:35.508Z,102293.84
2022-10-27T17:34:05.789Z,102292.09
2022-10-27T17:36:35.969Z,102280.75
2022-10-27T17:39:06.240Z,102288.56
2022-10-27T17:41:36.365Z,102284.19
2022-10-27T17:44:06.684Z,102292.09
2022-10-27T17:46:40.488Z,102285.94
2022-10-27T17:49:12.569Z,102292.06
2022-10-27T17:51:47.319Z,102286.81
2022-10-27T17:54:17.957Z,102277.19
2022-10-27T17:56:48.307Z,102283.31
2022-10-27T17:59:20.356Z,102280.69
2022-10-27T18:01:50.782Z,102274.53
2022-10-27T18:04:21.039Z,102276.28
2022-10-27T18:06:51.064Z,102274.47
2022-10-27T18:09:21.112Z,102278.88
2022-10-27T18:11:51.209Z,102274.53
2022-10-27T18:14:23.642Z,102275.38
2022-10-27T18:16:53.804Z,102277.97
2022-10-27T18:19:24.077Z,102280.56
2022-10-27T18:21:54.867Z,102271.78
2022-10-27T18:24:24.983Z,102274.44
2022-10-27T18:26:55.140Z,102281.41
2022-10-27T18:29:26.801Z,102272.63
2022-10-27T18:31:57.042Z,102277.00
2022-10-27T18:34:27.260Z,102284.81
2022-10-27T18:36:57.327Z,102279.56
2022-10-27T18:39:27.606Z,102280.44
2022-10-27T18:44:32.895Z,102264.72
2022-10-27T18:47:03.004Z,102282.09
2022-10-27T18:49:47.514Z,102292.59
2022-10-27T18:52:18.724Z,102280.31
2022-10-27T18:54:49.254Z,102283.81
2022-10-27T18:57:19.377Z,102290.81
2022-10-27T18:59:49.689Z,102291.66
2022-10-27T19:02:19.953Z,102290.78
2022-10-27T19:04:50.031Z,102288.09
2022-10-27T19:07:20.154Z,102298.56
2022-10-27T19:09:50.398Z,102295.97
2022-10-27T19:12:20.693Z,102295.97
2022-10-27T19:14:50.774Z,102299.38
2022-10-27T19:17:20.990Z,102305.47
2022-10-27T19:19:53.079Z,102303.72
2022-10-27T19:22:23.490Z,102297.59
2022-10-27T19:24:54.350Z,102289.63
2022-10-27T19:27:24.560Z,102291.47
2022-10-27T19:29:54.690Z,102299.31
2022-10-27T19:32:26.972Z,102307.16
2022-10-27T19:35:05.356Z,102300.13
2022-10-27T19:37:35.449Z,102307.13
2022-10-27T19:40:07.384Z,102297.56
2022-10-27T19:42:37.643Z,102299.22
2022-10-27T19:45:08.247Z,102295.78
2022-10-27T19:47:41.508Z,102301.88
2022-10-27T19:50:14.209Z,102293.13
2022-10-27T19:52:48.489Z,102294.91
2022-10-27T19:55:22.453Z,102302.75
2022-10-27T19:57:53.700Z,102305.34
2022-10-27T20:00:24.974Z,102306.22
2022-10-27T20:02:57.089Z,102298.34
2022-10-27T20:05:30.258Z,102309.69
2022-10-27T20:08:01.528Z,102299.22
2022-10-27T20:10:31.704Z,102306.19
2022-10-27T20:13:03.358Z,102306.19
2022-10-27T20:15:33.796Z,102306.19
2022-10-27T20:18:03.942Z,102307.03
2022-10-27T20:20:34.264Z,102298.31
2022-10-27T20:23:07.696Z,102303.53
2022-10-27T20:25:40.979Z,102300.03
2022-10-27T20:28:11.434Z,102306.13
2022-10-27T20:30:41.718Z,102302.66
2022-10-27T20:33:11.963Z,102302.59
2022-10-27T20:35:42.525Z,102301.69
2022-10-27T20:38:12.761Z,102299.09
2022-10-27T20:40:43.340Z,102305.16
2022-10-27T20:43:13.678Z,102294.63
2022-10-27T20:45:43.830Z,102293.75
2022-10-27T20:48:13.925Z,102305.94
2022-10-27T20:50:44.121Z,102298.13
2022-10-27T20:53:14.228Z,102300.72
2022-10-27T20:55:44.399Z,102303.34
2022-10-27T20:58:14.556Z,102302.41
2022-10-27T21:00:44.796Z,102303.22
2022-10-27T21:03:15.471Z,102299.75
2022-10-27T21:05:47.136Z,102311.06
2022-10-27T21:08:18.431Z,102312.78
2022-10-27T21:10:50.624Z,102312.78
2022-10-27T21:13:20.719Z,102309.34
2022-10-27T21:15:59.456Z,102304.09
2022-10-27T21:18:29.831Z,102302.31
2022-10-27T21:21:00.046Z,102309.34
2022-10-27T21:23:30.674Z,102300.56
2022-10-27T21:26:03.625Z,102303.22
2022-10-27T21:28:41.526Z,102303.19
2022-10-27T21:31:14.870Z,102300.59
2022-10-27T21:33:46.386Z,102303.16
2022-10-27T21:36:16.887Z,102309.28
2022-10-27T21:38:50.168Z,102296.19
2022-10-27T21:41:23.498Z,102301.47
2022-10-27T21:43:55.679Z,102306.69
2022-10-27T21:46:27.982Z,102303.25
2022-10-27T21:49:00.340Z,102298.00
2022-10-27T21:51:31.260Z,102291.03
2022-10-27T21:54:03.271Z,102298.97
2022-10-27T21:56:35.667Z,102289.44
2022-10-27T21:59:05.858Z,102289.47
2022-10-27T22:01:36.663Z,102295.63
2022-10-27T22:04:07.095Z,102281.72
2022-10-27T22:06:37.298Z,102278.25
2022-10-27T22:09:07.560Z,102286.13
2022-10-27T22:11:38.102Z,102285.25
2022-10-27T22:14:08.305Z,102277.47
2022-10-27T22:16:38.618Z,102286.16
2022-10-27T22:19:11.677Z,102280.13
2022-10-27T22:21:41.867Z,102286.25
2022-10-27T22:24:12.029Z,102290.63
2022-10-27T22:26:42.488Z,102287.13
2022-10-27T22:29:12.664Z,102283.63
2022-10-27T22:31:42.739Z,102277.59
2022-10-27T22:34:13.046Z,102275.00
2022-10-27T22:36:43.234Z,102267.13
2022-10-27T22:39:13.890Z,102271.47
2022-10-27T22:41:44.202Z,102271.50
2022-10-27T22:44:14.649Z,102268.91
2022-10-27T22:46:45.104Z,102263.69
2022-10-27T22:49:15.284Z,102261.09
2022-10-27T22:51:48.667Z,102270.69
2022-10-27T22:54:19.483Z,102268.06
2022-10-27T22:56:49.890Z,102265.47
2022-10-27T22:59:20.129Z,102266.38
2022-10-27T23:01:50.375Z,102263.75
2022-10-27T23:04:20.653Z,102264.56
2022-10-27T23:06:50.931Z,102266.34
2022-10-27T23:09:22.457Z,102260.22
2022-10-27T23:11:52.616Z,102262.88
2022-10-27T23:14:22.986Z,102262.88
2022-10-27T23:16:53.567Z,102250.69
2022-10-27T23:19:23.869Z,102263.75
2022-10-27T23:21:54.024Z,102275.09
2022-10-27T23:24:25.028Z,102257.63
2022-10-27T23:26:55.186Z,102264.66
2022-10-27T23:29:25.693Z,102259.41
2022-10-27T23:31:55.759Z,102262.03
2022-10-27T23:34:26.053Z,102264.66
2022-10-27T23:36:56.314Z,102264.66
2022-10-27T23:39:26.825Z,102260.38
2022-10-27T23:41:56.947Z,102262.13
2022-10-27T23:44:27.239Z,102263.00
2022-10-27T23:46:57.359Z,102264.75
2022-10-27T23:49:27.453Z,102266.50
2022-10-27T23:51:57.545Z,102263.91
2022-10-27T23:54:27.679Z,102254.34
2022-10-27T23:56:57.867Z,102237.69
2022-10-27T23:59:28.042Z,102255.25
